Time;durP1;ratioP1;P1;durP2;ratioP2;P2;SDS_P1;SDS_P2;PMS_P1;PMS_P2;Temp;Humidity;BMP_temperature;BMP_pressure;BME280_temperature;BME280_humidity;BME280_pressure;Samples;Min_cycle;Max_cycle;Signal;HPM_P1;HPM_P2
2023/06/14 00:00:59;;;;;;;3.50;3.20;;;;;;;8.43;92.16;97489.78;6243818;28;20227;-46
2023/06/14 00:04:01;;;;;;;4.40;4.00;;;;;;;8.44;92.21;97497.50;6240494;28;20242;-49
2023/06/14 00:07:04;;;;;;;4.03;3.63;;;;;;;8.46;92.46;97494.59;6239041;28;20791;-48
2023/06/14 00:10:07;;;;;;;4.30;3.90;;;;;;;8.38;92.93;97493.13;6239821;28;20238;-47
2023/06/14 00:13:10;;;;;;;5.70;4.63;;;;;;;8.35;93.07;97498.84;6232807;28;20246;-49
2023/06/14 00:16:12;;;;;;;5.03;4.37;;;;;;;8.34;93.41;97497.25;6237871;28;20277;-46
2023/06/14 00:19:15;;;;;;;4.93;4.10;;;;;;;8.35;93.42;97496.19;6245102;28;20232;-48
2023/06/14 00:22:18;;;;;;;4.30;3.90;;;;;;;8.37;93.14;97494.13;6231924;28;20221;-51
2023/06/14 00:25:23;;;;;;;6.57;4.23;;;;;;;8.40;93.52;97499.00;6236620;28;20225;-48
2023/06/14 00:28:30;;;;;;;6.80;4.30;;;;;;;8.46;93.56;97495.41;6233887;28;20252;-46
2023/06/14 00:31:33;;;;;;;5.03;4.40;;;;;;;8.50;94.58;97493.91;6221141;28;20245;-46
2023/06/14 00:34:35;;;;;;;5.00;4.43;;;;;;;8.48;94.47;97481.91;6236786;28;20243;-48
2023/06/14 00:37:38;;;;;;;4.63;4.13;;;;;;;8.52;94.73;97485.69;6241753;28;20230;-46
2023/06/14 00:40:40;;;;;;;5.70;3.90;;;;;;;8.53;94.40;97484.69;6235667;28;20233;-47
2023/06/14 00:43:42;;;;;;;4.27;3.70;;;;;;;8.55;93.99;97489.75;6239317;28;20231;-47
2023/06/14 00:46:48;;;;;;;6.20;4.47;;;;;;;8.57;94.60;97483.19;6202052;28;20690;-47
2023/06/14 00:49:51;;;;;;;4.93;4.10;;;;;;;8.35;94.41;97443.09;6235955;28;20263;-48
2023/06/14 00:52:54;;;;;;;5.37;4.53;;;;;;;8.64;94.67;97486.50;6227876;28;20267;-47
2023/06/14 00:55:56;;;;;;;5.33;4.43;;;;;;;8.66;94.35;97476.44;6239173;28;20276;-45
2023/06/14 00:58:58;;;;;;;5.87;4.50;;;;;;;8.60;94.31;97472.06;6238241;28;20693;-47
2023/06/14 01:02:01;;;;;;;4.80;4.03;;;;;;;8.67;94.33;97483.38;6238640;28;20231;-48
2023/06/14 01:05:04;;;;;;;5.33;4.53;;;;;;;8.66;94.23;97476.44;6221821;28;20687;-47
2023/06/14 01:08:28;;;;;;;5.10;4.20;;;;;;;8.69;94.44;97472.53;6242324;28;20763;-49
2023/06/14 01:11:37;;;;;;;5.63;4.50;;;;;;;8.68;94.52;97463.75;6242943;28;20780;-46
2023/06/14 01:14:41;;;;;;;7.87;4.63;;;;;;;8.72;94.27;97470.22;6244534;28;20320;-47
2023/06/14 01:17:45;;;;;;;4.53;4.13;;;;;;;8.73;94.64;97471.00;6240996;28;20358;-46
2023/06/14 01:20:49;;;;;;;5.73;4.97;;;;;;;8.76;94.41;97466.03;6243524;28;20229;-47
2023/06/14 01:23:52;;;;;;;4.87;4.27;;;;;;;8.80;94.74;97461.06;6231892;28;20277;-45
2023/06/14 01:26:57;;;;;;;5.13;4.47;;;;;;;8.83;94.42;97454.47;6209912;28;20723;-47
2023/06/14 01:30:02;;;;;;;3.93;3.50;;;;;;;8.88;94.58;97463.34;6242724;28;20248;-46
2023/06/14 01:33:05;;;;;;;5.07;4.57;;;;;;;8.79;94.10;97449.63;6241812;28;20291;-50
2023/06/14 01:36:09;;;;;;;6.30;4.90;;;;;;;8.89;94.29;97461.50;6242831;28;20219;-47
2023/06/14 01:39:17;;;;;;;7.53;4.43;;;;;;;8.88;94.69;97459.88;6231039;28;20229;-46
2023/06/14 01:42:21;;;;;;;6.03;4.23;;;;;;;8.88;94.79;97457.22;6241896;28;20708;-47
2023/06/14 01:45:23;;;;;;;5.47;4.17;;;;;;;8.88;94.72;97458.03;6225636;28;20287;-46
2023/06/14 01:48:26;;;;;;;7.03;4.47;;;;;;;8.92;94.70;97451.22;6209205;28;20245;-46
2023/06/14 01:51:28;;;;;;;5.37;4.40;;;;;;;8.98;95.08;97452.91;6242097;28;20312;-47
2023/06/14 01:54:30;;;;;;;6.97;4.00;;;;;;;9.05;95.19;97458.06;6241450;28;20371;-47
2023/06/14 01:57:33;;;;;;;4.87;4.37;;;;;;;8.67;94.85;97394.91;6224742;28;20276;-47
2023/06/14 02:00:35;;;;;;;5.00;4.20;;;;;;;9.13;94.52;97459.56;6242412;28;20238;-48
2023/06/14 02:03:38;;;;;;;5.17;4.27;;;;;;;9.17;94.58;97466.03;6240422;28;20288;-48
2023/06/14 02:06:40;;;;;;;5.27;4.30;;;;;;;9.20;94.67;97465.53;6207537;28;20323;-49
2023/06/14 02:09:43;;;;;;;4.20;3.80;;;;;;;9.22;94.67;97466.91;6209758;28;20269;-46
2023/06/14 02:12:45;;;;;;;4.67;3.97;;;;;;;9.28;95.07;97465.97;6241512;28;20242;-45
2023/06/14 02:15:51;;;;;;;3.97;3.53;;;;;;;9.33;94.86;97470.56;6244287;28;20241;-46
2023/06/14 02:18:53;;;;;;;4.63;4.10;;;;;;;9.39;94.82;97468.78;6207720;28;20264;-46
2023/06/14 02:21:55;;;;;;;4.67;4.20;;;;;;;9.40;95.07;97462.44;6237148;28;20238;-45
2023/06/14 02:24:57;;;;;;;5.03;4.47;;;;;;;9.42;95.42;97470.97;6240368;28;20232;-47
2023/06/14 02:28:03;;;;;;;5.83;4.37;;;;;;;9.43;94.97;97460.09;6240933;28;20239;-45
2023/06/14 02:31:06;;;;;;;9.70;4.57;;;;;;;9.44;94.83;97461.72;6240380;28;20858;-45
2023/06/14 02:34:08;;;;;;;4.30;3.90;;;;;;;9.45;94.82;97462.50;6240612;28;20233;-48
2023/06/14 02:37:10;;;;;;;4.83;4.07;;;;;;;9.46;95.37;97470.28;6242032;28;20235;-46
2023/06/14 02:40:13;;;;;;;5.87;4.63;;;;;;;9.31;94.87;97435.44;6220841;28;20265;-46
2023/06/14 02:43:17;;;;;;;5.70;4.47;;;;;;;9.55;95.10;97465.34;6242736;28;20234;-45
2023/06/14 02:46:19;;;;;;;5.10;4.17;;;;;;;9.61;94.87;97467.06;6216348;28;20257;-45
2023/06/14 02:49:24;;;;;;;7.03;4.60;;;;;;;9.63;94.73;97469.47;6239082;28;20297;-46
2023/06/14 02:52:26;;;;;;;10.27;4.53;;;;;;;9.42;94.92;97431.91;6222856;28;20326;-46
2023/06/14 02:55:28;;;;;;;5.20;4.70;;;;;;;9.63;95.04;97472.13;6240385;28;20242;-46
2023/06/14 02:58:30;;;;;;;3.90;3.57;;;;;;;9.64;94.63;97473.75;6221135;28;20256;-49
2023/06/14 03:01:38;;;;;;;5.70;4.57;;;;;;;9.64;94.64;97471.09;6208637;28;20315;-46
2023/06/14 03:04:43;;;;;;;6.07;4.23;;;;;;;9.39;94.82;97436.88;6208617;28;20654;-47
2023/06/14 03:07:50;;;;;;;4.27;3.57;;;;;;;9.63;95.12;97477.44;6222606;28;20614;-46
2023/06/14 03:10:53;;;;;;;4.07;3.67;;;;;;;9.62;95.20;97475.84;6241796;28;20237;-47
2023/06/14 03:13:56;;;;;;;5.97;3.83;;;;;;;9.58;94.76;97475.50;6222970;28;20252;-48
2023/06/14 03:17:01;;;;;;;6.17;4.07;;;;;;;9.55;94.97;97482.09;6207958;28;20244;-46
2023/06/14 03:20:05;;;;;;;6.17;3.97;;;;;;;9.48;94.89;97483.31;6235374;28;20241;-45
2023/06/14 03:23:08;;;;;;;5.20;4.70;;;;;;;9.19;95.30;97438.16;6242411;28;20260;-45
2023/06/14 03:26:17;;;;;;;6.73;4.10;;;;;;;9.26;95.31;97452.09;6203446;28;20335;-48
2023/06/14 03:29:22;;;;;;;5.90;4.50;;;;;;;9.35;95.08;97471.13;6221146;28;20233;-48
2023/06/14 03:32:25;;;;;;;5.47;4.50;;;;;;;9.33;95.94;97480.38;6220058;28;20309;-49
2023/06/14 03:35:29;;;;;;;8.13;4.67;;;;;;;9.21;95.61;97467.13;6218680;28;20236;-46
2023/06/14 03:38:31;;;;;;;5.63;4.33;;;;;;;9.31;95.72;97488.59;6236043;28;20225;-45
2023/06/14 03:41:34;;;;;;;5.40;4.90;;;;;;;9.03;95.73;97457.53;6240829;28;20265;-47
2023/06/14 03:44:38;;;;;;;5.40;4.63;;;;;;;9.18;95.40;97496.84;6218722;28;20829;-48
2023/06/14 03:47:40;;;;;;;7.50;4.90;;;;;;;9.14;96.03;97493.06;6202320;28;20236;-44
2023/06/14 03:50:44;;;;;;;5.27;4.57;;;;;;;8.99;96.25;97478.44;6238749;28;20241;-47
2023/06/14 03:53:46;;;;;;;6.13;4.80;;;;;;;8.98;96.17;97476.03;6237767;28;20242;-46
2023/06/14 03:57:10;;;;;;;7.27;4.90;;;;;;;9.22;96.49;97505.97;6214147;28;20264;-46
2023/06/14 04:00:13;;;;;;;6.03;4.83;;;;;;;9.29;96.48;97509.28;6205978;28;20221;-47
2023/06/14 04:03:15;;;;;;;5.33;4.70;;;;;;;9.27;97.18;97498.09;6239854;28;20218;-46
2023/06/14 04:06:19;;;;;;;5.23;4.67;;;;;;;9.45;96.69;97521.00;6230548;28;20246;-46
2023/06/14 04:09:24;;;;;;;7.50;5.23;;;;;;;9.54;96.88;97520.38;6235597;28;20324;-47
2023/06/14 04:12:26;;;;;;;5.47;4.40;;;;;;;9.62;96.39;97513.88;6238107;28;20230;-48
2023/06/14 04:15:29;;;;;;;6.97;5.17;;;;;;;9.59;95.80;97503.72;6239047;28;20229;-45
2023/06/14 04:18:33;;;;;;;5.17;4.67;;;;;;;9.78;96.12;97523.72;6224502;28;20229;-48
2023/06/14 04:21:35;;;;;;;4.93;4.43;;;;;;;9.87;96.46;97518.81;6231713;28;20233;-46
2023/06/14 04:24:38;;;;;;;6.00;4.17;;;;;;;9.98;96.05;97527.78;6219365;28;20229;-49
2023/06/14 04:27:41;;;;;;;5.00;4.50;;;;;;;10.07;95.76;97537.78;6218341;28;20580;-46
2023/06/14 04:30:47;;;;;;;5.33;4.20;;;;;;;9.98;96.02;97515.28;6235772;28;20229;-46
2023/06/14 04:33:53;;;;;;;8.83;4.43;;;;;;;10.24;95.64;97537.00;6235588;28;20230;-46
2023/06/14 04:36:58;;;;;;;4.90;4.50;;;;;;;10.30;95.65;97542.19;6228251;28;20719;-47
2023/06/14 04:40:06;;;;;;;5.50;4.23;;;;;;;10.35;95.05;97536.13;6205935;28;20235;-45
2023/06/14 04:43:15;;;;;;;4.40;4.00;;;;;;;10.20;95.19;97514.56;6223481;28;20237;-46
2023/06/14 04:46:18;;;;;;;4.17;3.77;;;;;;;10.44;95.10;97550.66;6225884;28;20716;-48
2023/06/14 04:49:23;;;;;;;4.40;4.00;;;;;;;10.49;94.74;97550.72;6206064;28;20233;-48
2023/06/14 04:52:29;;;;;;;4.07;3.67;;;;;;;10.47;94.55;97546.66;6223034;28;20238;-47
2023/06/14 04:55:32;;;;;;;4.23;3.83;;;;;;;10.58;94.71;97559.88;6242331;28;20293;-46
2023/06/14 04:58:38;;;;;;;4.50;4.10;;;;;;;10.56;94.13;97555.88;6227525;28;20242;-45
2023/06/14 05:01:40;;;;;;;5.23;4.73;;;;;;;10.58;94.11;97557.22;6240021;28;20258;-46
2023/06/14 05:04:43;;;;;;;5.57;4.53;;;;;;;10.55;94.40;97554.25;6238233;28;20236;-49
2023/06/14 05:07:46;;;;;;;4.90;4.40;;;;;;;10.58;94.12;97549.22;6243774;28;20226;-46
2023/06/14 05:10:48;;;;;;;4.57;4.17;;;;;;;10.63;93.82;97551.16;6242663;28;20246;-48
2023/06/14 05:13:51;;;;;;;6.53;4.50;;;;;;;10.71;93.61;97552.59;6210597;28;20246;-46
2023/06/14 05:16:53;;;;;;;5.50;4.50;;;;;;;10.78;93.86;97556.69;6225082;28;20607;-47
2023/06/14 05:19:55;;;;;;;7.47;4.40;;;;;;;10.77;93.63;97539.09;6240233;28;20412;-46
2023/06/14 05:22:58;;;;;;;4.87;4.37;;;;;;;10.91;93.54;97536.88;6241517;28;20427;-47
2023/06/14 05:26:02;;;;;;;5.60;4.20;;;;;;;11.11;94.03;97555.78;6244560;28;20231;-47
2023/06/14 05:29:04;;;;;;;4.80;4.37;;;;;;;11.06;93.77;97542.41;6245132;28;20231;-47
2023/06/14 05:32:07;;;;;;;4.30;3.87;;;;;;;11.26;93.50;97557.84;6245987;28;20219;-50
2023/06/14 05:35:10;;;;;;;4.17;3.77;;;;;;;11.48;92.80;97570.38;6245980;28;20238;-46
2023/06/14 05:38:12;;;;;;;3.70;3.40;;;;;;;11.58;93.04;97571.28;6238136;28;20638;-45
2023/06/14 05:41:14;;;;;;;3.73;3.43;;;;;;;11.36;92.24;97531.28;6226029;28;20237;-48
2023/06/14 05:44:17;;;;;;;3.60;3.30;;;;;;;11.65;91.86;97559.59;6244119;28;20233;-45
2023/06/14 05:47:19;;;;;;;3.57;3.27;;;;;;;11.59;91.58;97542.75;6243568;28;20227;-48
2023/06/14 05:50:21;;;;;;;3.50;3.20;;;;;;;11.98;90.99;97582.66;6241023;28;20226;-47
2023/06/14 05:53:23;;;;;;;4.40;3.97;;;;;;;12.10;91.19;97573.41;6240569;28;20966;-46
2023/06/14 05:56:26;;;;;;;3.90;3.30;;;;;;;12.20;90.91;97561.19;6242793;28;20260;-46
2023/06/14 05:59:29;;;;;;;3.73;3.43;;;;;;;12.45;90.23;97580.09;6243645;28;20585;-46
2023/06/14 06:02:31;;;;;;;3.80;3.50;;;;;;;12.47;89.69;97561.94;6242529;28;20795;-46
2023/06/14 06:05:33;;;;;;;3.77;3.37;;;;;;;12.69;89.44;97572.50;6209843;28;20229;-47
2023/06/14 06:08:35;;;;;;;6.57;3.37;;;;;;;12.81;88.55;97575.00;6241099;28;20315;-48
2023/06/14 06:11:38;;;;;;;5.03;3.90;;;;;;;12.95;87.98;97578.00;6239870;28;20237;-46
2023/06/14 06:14:53;;;;;;;4.57;3.50;;;;;;;13.04;87.65;97571.91;6239558;28;20653;-47
2023/06/14 06:17:56;;;;;;;3.43;3.13;;;;;;;13.16;87.36;97575.19;6236831;28;20240;-47
2023/06/14 06:20:58;;;;;;;4.00;3.33;;;;;;;13.28;86.71;97577.66;6242228;28;20235;-47
2023/06/14 06:24:03;;;;;;;4.93;3.30;;;;;;;13.18;85.50;97551.63;6241834;28;20692;-44
2023/06/14 06:27:08;;;;;;;4.37;3.27;;;;;;;13.51;85.35;97580.97;6236413;28;20227;-46
2023/06/14 06:30:10;;;;;;;5.93;3.77;;;;;;;13.67;84.31;97590.66;6240597;28;20217;-48
2023/06/14 06:33:13;;;;;;;4.20;3.50;;;;;;;13.78;83.72;97588.78;6244159;28;20231;-46
2023/06/14 06:36:16;;;;;;;6.87;3.47;;;;;;;13.91;83.10;97594.44;6240062;28;20225;-47
2023/06/14 06:39:18;;;;;;;3.87;3.07;;;;;;;14.12;74.17;97606.00;6243885;28;20235;-47
2023/06/14 06:42:20;;;;;;;4.70;3.50;;;;;;;14.18;76.31;97583.50;6237975;28;20574;-44
2023/06/14 06:45:25;;;;;;;4.50;2.93;;;;;;;14.58;73.51;97611.41;6225436;28;20396;-45
2023/06/14 06:48:27;;;;;;;3.53;3.23;;;;;;;14.74;75.85;97612.19;6239296;28;20227;-45
2023/06/14 06:51:29;;;;;;;4.10;2.97;;;;;;;14.79;76.38;97612.19;6224299;28;20234;-46
2023/06/14 06:54:33;;;;;;;4.53;3.30;;;;;;;14.77;75.55;97611.66;6242186;28;20230;-45
2023/06/14 06:57:35;;;;;;;3.63;2.70;;;;;;;14.65;75.33;97593.16;6240817;28;20889;-46
2023/06/14 07:00:38;;;;;;;2.93;2.63;;;;;;;14.65;72.94;97582.44;6206990;28;20726;-46
2023/06/14 07:03:40;;;;;;;3.70;2.97;;;;;;;14.91;69.61;97614.56;6235837;28;20812;-47
2023/06/14 07:06:43;;;;;;;4.23;3.40;;;;;;;14.99;66.51;97615.91;6240837;28;20273;-48
2023/06/14 07:09:45;;;;;;;3.60;3.10;;;;;;;15.00;68.85;97614.84;6242164;28;20233;-46
2023/06/14 07:12:47;;;;;;;3.50;3.20;;;;;;;15.02;68.76;97618.03;6240109;28;20456;-46
2023/06/14 07:15:50;;;;;;;3.60;3.13;;;;;;;15.07;68.18;97610.78;6240333;28;20239;-45
2023/06/14 07:18:52;;;;;;;5.03;2.80;;;;;;;15.05;66.21;97598.72;6239803;28;20361;-45
2023/06/14 07:21:55;;;;;;;3.50;3.20;;;;;;;15.31;70.35;97620.91;6239150;28;20273;-45
2023/06/14 07:24:57;;;;;;;3.00;2.70;;;;;;;15.25;71.14;97616.66;6231708;28;20246;-45
2023/06/14 07:27:59;;;;;;;5.20;2.90;;;;;;;15.45;65.81;97627.31;6239218;28;20347;-46
2023/06/14 07:31:02;;;;;;;2.97;2.57;;;;;;;15.56;70.45;97641.50;6238783;28;20612;-46
2023/06/14 07:34:05;;;;;;;4.43;2.60;;;;;;;15.48;71.47;97613.34;6209692;28;20607;-45
2023/06/14 07:37:07;;;;;;;4.10;2.97;;;;;;;15.63;70.49;97620.53;6217891;28;20715;-46
2023/06/14 07:40:10;;;;;;;3.10;2.67;;;;;;;15.75;70.47;97637.16;6239467;28;20235;-46
2023/06/14 07:43:12;;;;;;;3.30;2.97;;;;;;;15.80;71.34;97630.94;6241159;28;20227;-48
2023/06/14 07:46:14;;;;;;;4.30;2.93;;;;;;;15.82;71.50;97631.50;6241321;28;20231;-46
2023/06/14 07:49:17;;;;;;;5.10;3.67;;;;;;;15.77;68.85;97643.06;6240835;28;20257;-46
2023/06/14 07:52:20;;;;;;;4.53;3.13;;;;;;;15.90;69.60;97636.28;6237943;28;20263;-46
2023/06/14 07:55:22;;;;;;;3.97;3.33;;;;;;;15.90;60.99;97620.94;6229743;28;20233;-48
2023/06/14 07:58:24;;;;;;;4.57;3.23;;;;;;;16.09;63.66;97639.91;6238800;28;20239;-46
2023/06/14 08:01:27;;;;;;;5.10;2.80;;;;;;;16.10;66.92;97644.22;6239838;28;20319;-47
2023/06/14 08:04:30;;;;;;;3.87;3.10;;;;;;;16.17;65.34;97647.41;6239464;28;20305;-46
2023/06/14 08:07:33;;;;;;;3.17;2.87;;;;;;;16.20;66.33;97646.84;6239307;28;20240;-47
2023/06/14 08:10:35;;;;;;;3.23;2.93;;;;;;;16.28;68.20;97641.97;6238848;28;20318;-46
2023/06/14 08:13:37;;;;;;;3.87;3.00;;;;;;;16.39;64.64;97640.81;6236498;28;20315;-46
2023/06/14 08:16:39;;;;;;;3.77;3.00;;;;;;;16.57;67.73;97645.50;6234561;28;20233;-48
2023/06/14 08:19:42;;;;;;;5.10;3.83;;;;;;;16.65;57.71;97653.00;6238106;28;20799;-46
2023/06/14 08:22:46;;;;;;;4.10;3.73;;;;;;;16.76;58.70;97651.84;6242288;28;20238;-48
2023/06/14 08:25:48;;;;;;;3.90;3.47;;;;;;;17.05;60.19;97647.56;6231503;28;20230;-46
2023/06/14 08:28:50;;;;;;;3.70;3.40;;;;;;;17.32;61.52;97647.78;6237894;28;20219;-46
2023/06/14 08:31:53;;;;;;;5.63;3.10;;;;;;;17.42;60.27;97634.22;6219694;28;20231;-48
2023/06/14 08:34:55;;;;;;;5.60;3.37;;;;;;;17.61;60.40;97647.72;6239658;28;20231;-46
2023/06/14 08:38:06;;;;;;;7.73;3.50;;;;;;;17.72;57.16;97659.19;6236846;28;20340;-46
2023/06/14 08:41:13;;;;;;;4.33;3.67;;;;;;;17.58;53.43;97648.28;6237744;28;20308;-46
2023/06/14 08:44:16;;;;;;;5.30;3.47;;;;;;;17.50;54.12;97660.53;6237206;28;20232;-47
2023/06/14 08:47:20;;;;;;;4.43;3.27;;;;;;;17.46;54.59;97656.00;6220405;28;20258;-48
2023/06/14 08:50:26;;;;;;;4.33;3.40;;;;;;;17.60;56.03;97662.31;6234503;28;20234;-49
2023/06/14 08:53:36;;;;;;;7.57;3.80;;;;;;;17.57;53.80;97635.94;6239169;28;20263;-47
2023/06/14 08:56:41;;;;;;;5.57;3.50;;;;;;;17.71;53.65;97642.22;6240266;28;20255;-47
2023/06/14 08:59:53;;;;;;;4.43;3.17;;;;;;;17.92;55.02;97669.72;6217703;28;20305;-45
2023/06/14 09:02:58;;;;;;;6.87;3.83;;;;;;;18.12;53.98;97665.16;6236324;28;20729;-47
2023/06/14 09:06:01;;;;;;;4.17;3.37;;;;;;;18.10;52.90;97667.38;6231066;28;20228;-48
2023/06/14 09:09:04;;;;;;;3.97;3.47;;;;;;;18.15;52.03;97661.91;6238112;28;20306;-46
2023/06/14 09:12:10;;;;;;;4.47;3.33;;;;;;;18.35;53.11;97663.50;6238475;28;20219;-50
2023/06/14 09:15:14;;;;;;;6.73;3.20;;;;;;;18.50;54.92;97647.88;6221875;28;20358;-48
2023/06/14 09:18:16;;;;;;;4.93;3.83;;;;;;;18.79;52.18;97661.22;6239308;28;20219;-46
2023/06/14 09:21:18;;;;;;;5.13;3.53;;;;;;;18.70;52.27;97662.97;6232383;28;20227;-47
2023/06/14 09:24:21;;;;;;;9.30;3.63;;;;;;;18.46;51.92;97667.63;6238132;28;20235;-46
2023/06/14 09:27:26;;;;;;;3.57;3.27;;;;;;;18.21;53.37;97644.53;6243317;28;20704;-46
2023/06/14 09:30:28;;;;;;;4.80;3.33;;;;;;;18.10;52.17;97660.06;6243787;28;20228;-46
2023/06/14 09:33:31;;;;;;;5.20;3.67;;;;;;;17.97;51.96;97668.88;6243041;28;20227;-47
2023/06/14 09:36:33;;;;;;;4.73;2.97;;;;;;;17.92;53.76;97671.63;6242357;28;20231;-47
2023/06/14 09:39:48;;;;;;;4.13;3.10;;;;;;;17.90;55.23;97668.44;6244729;28;20235;-46
2023/06/14 09:42:52;;;;;;;5.97;3.20;;;;;;;17.85;56.81;97674.69;6238286;28;20234;-46
2023/06/14 09:45:54;;;;;;;4.57;2.70;;;;;;;17.88;58.79;97674.13;6241980;28;20236;-46
2023/06/14 09:49:01;;;;;;;5.50;2.90;;;;;;;17.89;52.57;97669.53;6240616;28;20231;-48
2023/06/14 09:52:05;;;;;;;6.20;3.03;;;;;;;17.74;54.30;97665.94;6241099;28;20240;-47
2023/06/14 09:55:12;;;;;;;3.20;2.80;;;;;;;17.40;55.40;97611.38;6240978;28;20356;-49
2023/06/14 09:58:17;;;;;;;4.67;2.77;;;;;;;17.71;56.37;97668.38;6238200;28;20239;-47
2023/06/14 10:01:20;;;;;;;5.90;3.10;;;;;;;17.64;55.83;97671.41;6240699;28;20271;-50
2023/06/14 10:04:23;;;;;;;3.73;3.07;;;;;;;17.62;53.84;97670.88;6239410;28;20597;-47
2023/06/14 10:07:26;;;;;;;3.27;2.80;;;;;;;17.54;54.88;97653.47;6225571;28;20235;-46
2023/06/14 10:10:29;;;;;;;4.80;2.97;;;;;;;17.65;54.20;97677.59;6242866;28;20243;-49
2023/06/14 10:13:35;;;;;;;9.63;3.33;;;;;;;17.59;53.26;97667.97;6246946;28;20234;-46
2023/06/14 10:17:00;;;;;;;5.03;2.80;;;;;;;17.58;56.19;97667.16;6242586;28;20234;-46
2023/06/14 10:20:25;;;;;;;2.70;2.50;;;;;;;17.49;56.04;97650.84;6242118;28;20231;-47
2023/06/14 10:23:30;;;;;;;4.20;3.23;;;;;;;17.60;55.69;97669.59;6239062;28;20309;-47
2023/06/14 10:26:32;;;;;;;3.03;2.60;;;;;;;17.67;56.82;97672.72;6239709;28;20281;-49
2023/06/14 10:29:34;;;;;;;4.73;2.80;;;;;;;17.43;55.91;97645.78;6242054;28;20233;-49
2023/06/14 10:33:10;;;;;;;5.37;2.80;;;;;;;17.60;53.13;97667.69;6238721;28;20242;-49
2023/06/14 10:36:27;;;;;;;3.53;2.50;;;;;;;17.63;55.28;97667.09;6239817;28;20235;-48
2023/06/14 10:39:30;;;;;;;4.63;2.47;;;;;;;17.67;56.15;97673.53;6205681;28;20228;-49
2023/06/14 10:42:33;;;;;;;3.00;2.70;;;;;;;17.71;55.99;97673.75;6240284;28;20303;-48
2023/06/14 10:45:35;;;;;;;3.07;2.77;;;;;;;17.70;56.73;97681.03;6240187;28;20249;-50
2023/06/14 10:48:41;;;;;;;3.40;2.60;;;;;;;17.72;58.27;97664.56;6239755;28;20771;-47
2023/06/14 10:51:52;;;;;;;3.03;2.73;;;;;;;17.73;57.36;97658.94;6242001;28;20314;-47
2023/06/14 10:55:03;;;;;;;3.87;2.67;;;;;;;17.68;57.79;97667.03;6240020;28;20717;-45
2023/06/14 10:58:06;;;;;;;5.33;3.43;;;;;;;17.68;55.50;97658.94;6240042;28;20239;-48
2023/06/14 11:01:10;;;;;;;9.50;2.97;;;;;;;17.69;55.94;97657.88;6243656;28;20950;-47
2023/06/14 11:04:12;;;;;;;4.97;2.73;;;;;;;17.83;57.28;97665.28;6235889;28;20227;-49
2023/06/14 11:07:40;;;;;;;3.57;3.10;;;;;;;17.86;52.72;97662.00;6240487;28;20227;-49
2023/06/14 11:10:47;;;;;;;4.70;3.13;;;;;;;17.88;52.14;97657.94;6213501;28;20226;-47
2023/06/14 11:13:51;;;;;;;3.67;2.40;;;;;;;17.93;54.55;97665.97;6233144;28;20246;-48
2023/06/14 11:16:56;;;;;;;3.73;2.90;;;;;;;17.99;55.32;97645.13;6241770;28;20235;-48
2023/06/14 11:20:15;;;;;;;7.13;3.13;;;;;;;18.14;54.01;97649.53;6240901;28;20243;-45
2023/06/14 11:23:21;;;;;;;3.60;3.00;;;;;;;18.27;54.33;97654.16;6235068;28;20614;-48
2023/06/14 11:26:34;;;;;;;5.23;3.10;;;;;;;18.33;53.69;97653.00;6239660;28;20242;-48
2023/06/14 11:29:36;;;;;;;2.53;2.33;;;;;;;18.37;54.16;97656.69;6203860;28;20589;-47
2023/06/14 11:32:39;;;;;;;3.60;2.70;;;;;;;18.49;55.34;97643.59;6238457;28;20861;-47
2023/06/14 11:35:42;;;;;;;3.80;2.80;;;;;;;18.60;55.78;97644.22;6226505;28;20589;-48
2023/06/14 11:38:44;;;;;;;5.50;3.10;;;;;;;18.50;47.92;97647.09;6238759;28;20231;-50
2023/06/14 11:41:46;;;;;;;4.73;2.70;;;;;;;18.35;48.29;97628.44;6238818;28;20238;-48
2023/06/14 11:44:49;;;;;;;2.87;2.40;;;;;;;18.58;51.17;97640.22;6239335;28;20886;-48
2023/06/14 11:47:56;;;;;;;3.47;2.80;;;;;;;18.84;51.37;97648.72;6240431;28;20318;-46
2023/06/14 11:50:58;;;;;;;5.63;2.77;;;;;;;18.93;49.02;97644.25;6241076;28;20227;-46
2023/06/14 11:54:02;;;;;;;4.27;2.70;;;;;;;19.03;51.40;97638.69;6236420;28;21107;-46
2023/06/14 11:57:09;;;;;;;6.03;2.70;;;;;;;19.13;48.55;97640.41;6219699;28;20228;-47
2023/06/14 12:00:12;;;;;;;4.70;2.67;;;;;;;19.24;50.88;97642.59;6239268;28;20231;-47
2023/06/14 12:03:14;;;;;;;4.37;2.97;;;;;;;19.48;50.59;97637.00;6237384;28;20204;-47
2023/06/14 12:06:28;;;;;;;3.80;2.27;;;;;;;19.53;48.78;97618.00;6241723;28;20216;-46
2023/06/14 12:09:32;;;;;;;2.50;2.30;;;;;;;19.66;48.32;97632.63;6240048;28;20231;-46
2023/06/14 12:12:39;;;;;;;3.13;2.13;;;;;;;19.74;50.02;97636.53;6235180;28;20230;-47
2023/06/14 12:15:42;;;;;;;3.40;2.47;;;;;;;19.69;46.94;97626.59;6218788;28;20226;-46
2023/06/14 12:18:45;;;;;;;2.80;1.97;;;;;;;19.91;45.97;97619.69;6239091;28;20226;-46
2023/06/14 12:21:52;;;;;;;3.97;2.73;;;;;;;19.91;47.70;97634.00;6234675;28;20286;-48
2023/06/14 12:24:55;;;;;;;3.63;3.00;;;;;;;19.77;50.68;97636.72;6238497;28;20234;-46
2023/06/14 12:27:59;;;;;;;3.60;2.57;;;;;;;19.44;48.38;97637.91;6239768;28;20601;-47
2023/06/14 12:31:02;;;;;;;3.03;2.43;;;;;;;19.14;48.85;97612.28;6239394;28;20760;-50
2023/06/14 12:34:04;;;;;;;2.20;2.00;;;;;;;19.16;51.97;97628.97;6237116;28;20232;-47
2023/06/14 12:37:06;;;;;;;3.93;2.97;;;;;;;19.03;52.91;97639.47;6235227;28;20323;-48
2023/06/14 12:40:11;;;;;;;3.23;1.93;;;;;;;18.98;53.92;97638.78;6238615;28;20243;-47
2023/06/14 12:43:13;;;;;;;2.70;2.20;;;;;;;18.99;55.89;97626.88;6239343;28;20607;-47
2023/06/14 12:46:17;;;;;;;4.23;2.60;;;;;;;19.25;53.64;97619.09;6237972;28;20235;-47
2023/06/14 12:49:20;;;;;;;2.40;2.20;;;;;;;19.57;51.64;97620.91;6234421;28;20741;-46
2023/06/14 12:52:22;;;;;;;3.00;2.10;;;;;;;19.75;52.24;97617.31;6238233;28;20321;-48
2023/06/14 12:55:24;;;;;;;2.87;2.57;;;;;;;19.96;51.64;97627.69;6238014;28;20219;-46
2023/06/14 12:58:26;;;;;;;3.10;2.10;;;;;;;19.94;49.66;97627.19;6238818;28;20227;-48
2023/06/14 13:01:29;;;;;;;3.93;2.60;;;;;;;19.95;47.81;97616.06;6237671;28;20235;-48
2023/06/14 13:04:31;;;;;;;2.53;2.20;;;;;;;19.89;47.04;97621.88;6235619;28;20602;-50
2023/06/14 13:07:33;;;;;;;3.33;2.37;;;;;;;19.81;48.41;97626.91;6244520;28;20215;-49
2023/06/14 13:10:36;;;;;;;2.87;2.00;;;;;;;19.58;46.70;97626.00;6237664;28;20846;-46
2023/06/14 13:13:38;;;;;;;2.80;2.47;;;;;;;19.43;52.36;97625.50;6244432;28;20223;-46
2023/06/14 13:16:40;;;;;;;2.77;2.50;;;;;;;19.32;53.10;97617.59;6243188;28;20355;-49
2023/06/14 13:19:43;;;;;;;2.13;1.80;;;;;;;19.22;50.70;97607.00;6241329;28;20230;-47
2023/06/14 13:22:45;;;;;;;3.30;2.23;;;;;;;19.30;52.17;97608.97;6228787;28;20615;-46
2023/06/14 13:25:50;;;;;;;5.83;2.10;;;;;;;19.46;55.76;97625.72;6242164;28;20239;-46
2023/06/14 13:28:52;;;;;;;2.70;2.20;;;;;;;19.58;53.68;97623.28;6224076;28;20262;-46
2023/06/14 13:31:55;;;;;;;2.63;2.00;;;;;;;19.67;51.42;97609.91;6244052;28;20606;-48
2023/06/14 13:34:57;;;;;;;3.93;2.47;;;;;;;19.76;51.31;97607.31;6240884;28;20223;-46
2023/06/14 13:37:59;;;;;;;2.77;2.10;;;;;;;19.70;48.23;97608.50;6240667;28;20246;-46
2023/06/14 13:41:02;;;;;;;2.90;2.13;;;;;;;19.93;48.32;97602.03;6240926;28;20321;-47
2023/06/14 13:44:04;;;;;;;2.30;2.10;;;;;;;20.00;50.03;97596.22;6242350;28;20781;-46
2023/06/14 13:47:06;;;;;;;2.80;2.07;;;;;;;20.14;49.28;97596.97;6235601;28;20216;-49
2023/06/14 13:50:09;;;;;;;3.70;2.50;;;;;;;20.30;48.64;97595.53;6242781;28;20234;-47
2023/06/14 13:53:12;;;;;;;2.17;1.97;;;;;;;20.28;45.99;97586.91;6237789;28;20718;-46
2023/06/14 13:56:14;;;;;;;2.73;2.47;;;;;;;20.29;43.81;97582.28;6240479;28;20325;-49
2023/06/14 13:59:16;;;;;;;2.30;2.03;;;;;;;20.41;47.11;97604.19;6224514;28;20251;-46
2023/06/14 14:02:19;;;;;;;2.27;2.07;;;;;;;20.38;48.08;97601.28;6236686;28;20289;-49
2023/06/14 14:05:25;;;;;;;2.30;2.10;;;;;;;20.09;48.96;97608.69;6243635;28;20219;-47
2023/06/14 14:08:28;;;;;;;4.60;2.60;;;;;;;19.88;46.23;97614.88;6242021;28;20231;-47
2023/06/14 14:11:32;;;;;;;3.60;2.20;;;;;;;19.86;45.98;97617.09;6242202;28;20616;-47
2023/06/14 14:14:35;;;;;;;2.23;2.03;;;;;;;19.94;44.61;97609.03;6225954;28;20231;-48
2023/06/14 14:17:37;;;;;;;3.83;2.33;;;;;;;19.84;45.90;97588.44;6238875;28;20651;-47
2023/06/14 14:20:39;;;;;;;2.57;2.03;;;;;;;19.59;47.84;97573.56;6241821;28;20619;-48
2023/06/14 14:23:42;;;;;;;2.57;2.33;;;;;;;19.61;49.57;97608.41;6244211;28;20227;-47
2023/06/14 14:26:47;;;;;;;2.87;2.00;;;;;;;19.50;51.48;97607.78;6238321;28;20614;-47
2023/06/14 14:29:50;;;;;;;2.23;1.93;;;;;;;19.38;52.81;97602.09;6241370;28;20219;-46